Time;durP1;ratioP1;P1;durP2;ratioP2;P2;SDS_P1;SDS_P2;PMS_P1;PMS_P2;Temp;Humidity;BMP_temperature;BMP_pressure;BME280_temperature;BME280_humidity;BME280_pressure;Samples;Min_cycle;Max_cycle;Signal;HPM_P1;HPM_P2
2022/01/13 00:01:45;;;;;;;281.17;47.17;;;;;;;1.75;100.00;103833.53;4996274;28;20053;-77
2022/01/13 00:04:13;;;;;;;271.38;49.53;;;;;;;1.82;100.00;103839.88;4994700;28;20026;-77
2022/01/13 00:06:39;;;;;;;283.40;50.13;;;;;;;1.86;100.00;103849.81;5002838;28;20052;-77
2022/01/13 00:09:05;;;;;;;301.30;51.47;;;;;;;1.89;100.00;103847.13;4978813;28;20583;-78
2022/01/13 00:11:31;;;;;;;283.00;46.25;;;;;;;1.92;100.00;103844.47;4980171;28;20498;-77
2022/01/13 00:14:21;;;;;;;288.65;49.25;;;;;;;1.85;100.00;103848.00;5011615;28;20120;-77
2022/01/13 00:17:07;;;;;;;278.95;49.20;;;;;;;1.85;100.00;103853.41;4996237;28;20086;-78
2022/01/13 00:19:35;;;;;;;300.92;47.50;;;;;;;1.88;100.00;103857.94;4999676;28;20053;-78
2022/01/13 00:24:53;;;;;;;340.25;51.47;;;;;;;1.82;100.00;103861.47;5000595;28;20038;-77
2022/01/13 00:27:20;;;;;;;305.73;50.67;;;;;;;1.79;100.00;103864.19;4999292;28;20027;-77
2022/01/13 00:29:46;;;;;;;306.40;50.08;;;;;;;1.76;100.00;103856.06;4991491;28;20133;-77
2022/01/13 00:32:14;;;;;;;293.00;51.05;;;;;;;1.77;100.00;103860.56;4992229;28;20545;-77
2022/01/13 00:34:40;;;;;;;324.17;53.17;;;;;;;1.81;100.00;103862.41;4991699;28;20050;-77
2022/01/13 00:37:05;;;;;;;317.77;50.45;;;;;;;1.81;100.00;103851.59;4999033;28;20034;-77
2022/01/13 00:39:31;;;;;;;349.23;50.90;;;;;;;1.80;100.00;103856.09;4976602;28;20045;-77
2022/01/13 00:41:56;;;;;;;325.50;49.42;;;;;;;1.81;100.00;103862.41;4999225;28;20033;-77
2022/01/13 00:44:22;;;;;;;330.52;51.42;;;;;;;1.76;100.00;103859.66;4994258;28;20054;-77
2022/01/13 00:46:58;;;;;;;351.52;51.85;;;;;;;1.83;100.00;103863.31;4995678;28;20035;-77
2022/01/13 00:49:24;;;;;;;339.02;52.15;;;;;;;1.84;100.00;103851.63;4989549;28;20487;-77
2022/01/13 00:51:50;;;;;;;326.15;52.05;;;;;;;1.77;100.00;103849.75;4995547;28;20049;-77
2022/01/13 00:54:15;;;;;;;328.23;47.38;;;;;;;1.74;100.00;103849.72;4997885;28;20030;-77
2022/01/13 00:56:41;;;;;;;319.55;47.95;;;;;;;1.76;100.00;103846.16;5003747;28;20033;-77
2022/01/13 00:59:09;;;;;;;313.02;47.22;;;;;;;1.76;100.00;103846.16;5009951;28;20042;-77
2022/01/13 01:01:40;;;;;;;316.83;45.35;;;;;;;1.78;100.00;103840.75;4992065;28;20034;-77
2022/01/13 01:04:06;;;;;;;322.05;46.40;;;;;;;1.76;100.00;103840.75;4992227;28;20121;-77
2022/01/13 01:06:34;;;;;;;337.38;46.78;;;;;;;1.74;100.00;103837.16;5008613;28;20042;-77
2022/01/13 01:08:59;;;;;;;327.25;45.95;;;;;;;1.73;100.00;103837.13;4993215;28;20064;-77
2022/01/13 01:11:26;;;;;;;354.38;47.97;;;;;;;1.73;100.00;103831.72;5000789;28;20466;-77
2022/01/13 01:13:53;;;;;;;327.63;45.47;;;;;;;1.69;100.00;103836.22;4994824;28;20077;-77
2022/01/13 01:16:19;;;;;;;325.80;42.30;;;;;;;1.66;100.00;103841.59;4999258;28;20034;-77
2022/01/13 01:26:52;;;;;;;302.17;40.85;;;;;;;1.65;100.00;103835.28;4996197;28;20072;-77
2022/01/13 01:29:28;;;;;;;275.70;38.45;;;;;;;1.63;100.00;103839.75;4976825;28;20039;-77
2022/01/13 01:31:57;;;;;;;293.45;41.35;;;;;;;1.68;100.00;103847.91;4998814;28;20038;-77
2022/01/13 01:37:17;;;;;;;268.15;37.90;;;;;;;1.58;100.00;103838.84;4996236;28;20113;-77
2022/01/13 01:39:48;;;;;;;313.73;40.15;;;;;;;1.58;100.00;103843.34;5003544;28;20049;-77
2022/01/13 01:42:15;;;;;;;298.40;38.55;;;;;;;1.57;100.00;103846.91;4996769;28;20038;-77
2022/01/13 01:44:44;;;;;;;306.88;41.78;;;;;;;1.60;100.00;103847.84;4993454;28;20026;-77
2022/01/13 01:47:14;;;;;;;294.10;37.65;;;;;;;1.47;100.00;103837.84;4981712;28;20443;-77
2022/01/13 01:49:43;;;;;;;289.08;40.20;;;;;;;1.51;100.00;103839.69;5023798;28;20066;-77
2022/01/13 01:52:12;;;;;;;288.85;39.55;;;;;;;1.47;100.00;103849.53;4999243;28;20068;-77
2022/01/13 01:54:37;;;;;;;346.42;38.47;;;;;;;1.49;100.00;103854.06;4992652;28;20104;-77
2022/01/13 01:57:04;;;;;;;292.42;36.05;;;;;;;1.45;100.00;103847.75;4994218;28;20039;-77
2022/01/13 01:59:32;;;;;;;284.13;38.20;;;;;;;1.48;100.00;103845.06;5001947;28;20057;-77
2022/01/13 02:01:58;;;;;;;323.83;40.80;;;;;;;1.48;100.00;103845.06;4993679;28;20034;-77
2022/01/13 02:04:26;;;;;;;338.75;38.10;;;;;;;1.47;100.00;103832.44;5019912;28;20121;-77
2022/01/13 02:06:54;;;;;;;254.38;37.08;;;;;;;1.48;100.00;103831.56;4972911;28;20035;-77
2022/01/13 02:09:20;;;;;;;330.85;38.80;;;;;;;1.50;100.00;103834.28;5012544;28;20501;-77
2022/01/13 02:11:52;;;;;;;335.27;38.63;;;;;;;1.53;100.00;103843.31;4993675;28;20042;-77
2022/01/13 02:16:53;;;;;;;323.92;40.40;;;;;;;1.53;100.00;103837.00;4994758;28;20030;-77
2022/01/13 02:19:19;;;;;;;314.90;40.75;;;;;;;1.50;100.00;103853.19;4995226;28;20089;-77
2022/01/13 02:21:45;;;;;;;338.88;38.20;;;;;;;1.56;100.00;103847.81;4992773;28;20548;-77
2022/01/13 02:24:11;;;;;;;335.35;44.00;;;;;;;1.57;100.00;103858.63;4993388;28;20042;-77
2022/01/13 02:26:37;;;;;;;378.90;39.28;;;;;;;1.47;100.00;103854.94;4977110;28;20096;-77
2022/01/13 02:29:03;;;;;;;279.58;40.95;;;;;;;1.46;100.00;103863.94;4992553;28;20040;-77
2022/01/13 02:31:29;;;;;;;315.27;39.38;;;;;;;1.55;100.00;103860.41;4995587;28;20030;-77
2022/01/13 02:33:55;;;;;;;305.58;39.08;;;;;;;1.51;100.00;103849.56;4975555;28;20030;-77
2022/01/13 02:36:22;;;;;;;351.50;39.25;;;;;;;1.42;100.00;103853.13;4998176;28;20084;-77
2022/01/13 02:38:54;;;;;;;303.23;39.88;;;;;;;1.40;100.00;103860.31;4995958;28;20037;-77
2022/01/13 02:41:24;;;;;;;323.55;41.35;;;;;;;1.38;100.00;103863.00;5006711;28;20037;-77
2022/01/13 02:43:52;;;;;;;272.60;39.60;;;;;;;1.41;100.00;103862.09;4993247;28;20037;-78
2022/01/13 02:49:20;;;;;;;264.23;35.05;;;;;;;1.35;100.00;103852.16;5011206;28;20490;-77
2022/01/13 02:51:48;;;;;;;289.88;36.40;;;;;;;1.35;100.00;103852.16;4992573;28;20034;-77
2022/01/13 02:54:14;;;;;;;257.00;38.67;;;;;;;1.32;100.00;103849.44;4993992;28;20057;-77
2022/01/13 02:56:40;;;;;;;233.55;36.28;;;;;;;1.35;100.00;103846.78;4990505;28;20486;-77
2022/01/13 02:59:07;;;;;;;280.58;39.00;;;;;;;1.33;100.00;103843.16;5007875;28;20053;-77
2022/01/13 03:01:33;;;;;;;285.52;37.67;;;;;;;1.36;100.00;103837.78;4976188;28;20096;-77
2022/01/13 03:04:05;;;;;;;288.60;39.25;;;;;;;1.36;100.00;103843.19;4989703;28;20031;-77
2022/01/13 03:06:34;;;;;;;266.13;39.13;;;;;;;1.37;100.00;103836.88;4980784;28;20485;-77
2022/01/13 03:09:01;;;;;;;275.60;39.90;;;;;;;1.30;100.00;103835.03;4991839;28;20037;-77
2022/01/13 03:11:39;;;;;;;310.02;38.97;;;;;;;1.33;100.00;103834.13;4990302;28;20121;-77
2022/01/13 03:14:08;;;;;;;300.33;37.85;;;;;;;1.32;100.00;103837.75;4976517;28;20034;-77
2022/01/13 03:16:34;;;;;;;334.60;43.22;;;;;;;1.34;100.00;103828.75;4992658;28;20089;-77
2022/01/13 03:19:00;;;;;;;322.90;40.22;;;;;;;1.41;100.00;103813.50;4992269;28;20034;-77
2022/01/13 03:21:25;;;;;;;310.63;41.17;;;;;;;1.34;100.00;103814.38;4991082;28;20034;-77
2022/01/13 03:23:51;;;;;;;339.05;42.55;;;;;;;1.35;100.00;103810.78;4991748;28;20426;-77
2022/01/13 03:26:17;;;;;;;336.85;39.95;;;;;;;1.30;100.00;103816.13;4976493;28;20072;-77
2022/01/13 03:28:54;;;;;;;312.63;40.30;;;;;;;1.38;100.00;103832.41;4992196;28;20070;-77
2022/01/13 03:31:22;;;;;;;312.75;37.45;;;;;;;1.32;100.00;103822.44;4967248;28;20042;-77
2022/01/13 03:33:48;;;;;;;332.15;40.03;;;;;;;1.30;100.00;103826.94;4994652;28;20034;-77
2022/01/13 03:36:14;;;;;;;362.48;43.97;;;;;;;1.24;100.00;103824.19;4994542;28;20062;-77
2022/01/13 03:38:40;;;;;;;340.13;42.42;;;;;;;1.29;100.00;103831.41;4999300;28;20069;-77
2022/01/13 03:41:05;;;;;;;342.10;41.38;;;;;;;1.23;100.00;103816.97;4993733;28;20062;-77
2022/01/13 03:43:32;;;;;;;367.95;43.08;;;;;;;1.24;100.00;103827.78;4992031;28;20474;-77
2022/01/13 03:45:58;;;;;;;374.20;44.90;;;;;;;1.28;100.00;103829.63;4991270;28;20038;-77
2022/01/13 03:48:24;;;;;;;456.13;48.25;;;;;;;1.26;100.00;103831.41;4990393;28;20373;-77
2022/01/13 03:50:49;;;;;;;391.88;43.20;;;;;;;1.28;100.00;103835.03;5008868;28;20046;-77
2022/01/13 03:53:27;;;;;;;385.27;45.08;;;;;;;1.28;100.00;103835.03;4992232;28;20577;-77
2022/01/13 03:56:20;;;;;;;379.25;43.25;;;;;;;1.30;100.00;103837.72;4992582;28;20038;-77
2022/01/13 03:59:34;;;;;;;400.77;44.95;;;;;;;1.26;100.00;103828.72;4990133;28;20034;-77
2022/01/13 04:02:10;;;;;;;398.90;47.15;;;;;;;1.26;100.00;103830.47;4992274;28;20030;-77
2022/01/13 04:04:53;;;;;;;378.10;44.40;;;;;;;1.21;100.00;103827.75;5013060;28;20048;-77
2022/01/13 04:07:24;;;;;;;339.33;42.78;;;;;;;1.24;100.00;103825.06;4977267;28;20053;-77
2022/01/13 04:09:50;;;;;;;375.20;39.65;;;;;;;1.25;100.00;103823.31;4984655;28;20042;-77
2022/01/13 04:12:18;;;;;;;387.92;44.47;;;;;;;1.26;100.00;103822.38;5008108;28;20356;-77
2022/01/13 04:14:48;;;;;;;372.08;45.05;;;;;;;1.28;100.00;103817.94;4991807;28;20062;-77
2022/01/13 04:17:18;;;;;;;417.42;47.55;;;;;;;1.28;100.00;103826.91;4992046;28;20030;-77
2022/01/13 04:19:45;;;;;;;372.60;43.13;;;;;;;1.33;100.00;103826.97;5004469;28;20038;-77
2022/01/13 04:22:12;;;;;;;450.27;45.83;;;;;;;1.29;100.00;103817.91;4990704;28;20430;-77
2022/01/13 04:24:42;;;;;;;439.13;46.00;;;;;;;1.26;100.00;103800.78;4984605;28;20112;-77
2022/01/13 04:27:09;;;;;;;394.05;45.50;;;;;;;1.31;100.00;103800.84;4992701;28;20479;-77
2022/01/13 04:29:41;;;;;;;446.23;48.78;;;;;;;1.25;100.00;103802.59;4989872;28;20039;-77
2022/01/13 04:32:07;;;;;;;389.67;46.08;;;;;;;1.23;100.00;103812.50;4991646;28;20034;-77
2022/01/13 04:34:34;;;;;;;438.58;48.50;;;;;;;1.30;100.00;103818.84;4972539;28;20026;-77
2022/01/13 04:37:00;;;;;;;445.25;47.08;;;;;;;1.29;100.00;103815.22;4992682;28;20517;-77
2022/01/13 04:39:27;;;;;;;473.02;52.65;;;;;;;1.27;100.00;103806.22;4985605;28;20041;-77
2022/01/13 04:41:54;;;;;;;474.65;51.42;;;;;;;1.35;100.00;103802.69;4975007;28;20035;-77
2022/01/13 04:44:22;;;;;;;500.85;54.45;;;;;;;1.37;100.00;103804.47;4992018;28;20084;-77
2022/01/13 04:46:49;;;;;;;505.40;51.00;;;;;;;1.37;100.00;103817.97;5003651;28;20089;-77
2022/01/13 04:49:16;;;;;;;527.28;53.47;;;;;;;1.37;100.00;103820.69;4992374;28;20042;-77
2022/01/13 04:51:42;;;;;;;502.42;53.63;;;;;;;1.39;100.00;103809.91;4990701;28;20030;-75
2022/01/13 04:54:07;;;;;;;516.38;49.78;;;;;;;1.37;100.00;103796.38;4988575;28;20057;-76
2022/01/13 04:59:10;;;;;;;428.48;50.72;;;;;;;1.28;100.00;103793.63;4991728;28;20039;-77
2022/01/13 05:01:36;;;;;;;495.17;52.90;;;;;;;1.30;100.00;103794.56;4990688;28;20081;-76
2022/01/13 05:04:02;;;;;;;436.75;51.60;;;;;;;1.29;100.00;103782.81;4990424;28;20034;-76
2022/01/13 05:06:28;;;;;;;504.85;57.20;;;;;;;1.35;100.00;103795.47;4977289;28;20046;-76
2022/01/13 05:08:53;;;;;;;560.83;57.65;;;;;;;1.39;100.00;103788.31;4994249;28;20089;-76
2022/01/13 05:11:20;;;;;;;502.50;57.47;;;;;;;1.35;100.00;103797.28;4992350;28;20022;-77
2022/01/13 05:13:45;;;;;;;516.00;57.85;;;;;;;1.39;100.00;103794.59;4997019;28;20374;-76
2022/01/13 05:16:25;;;;;;;538.25;60.42;;;;;;;1.42;100.00;103797.31;4998385;28;20038;-76
2022/01/13 05:19:13;;;;;;;500.42;56.65;;;;;;;1.38;100.00;103790.09;4994443;28;20478;-76
2022/01/13 05:24:19;;;;;;;472.67;56.72;;;;;;;1.34;100.00;103803.56;4993956;28;20387;-76
2022/01/13 05:26:45;;;;;;;494.05;59.13;;;;;;;1.36;100.00;103802.69;4994981;28;20031;-76
2022/01/13 05:29:16;;;;;;;427.20;51.80;;;;;;;1.39;100.00;103789.19;4996499;28;20034;-76
2022/01/13 05:31:41;;;;;;;424.08;53.45;;;;;;;1.34;100.00;103793.66;5000405;28;20042;-76
2022/01/13 05:34:07;;;;;;;399.58;52.35;;;;;;;1.28;100.00;103783.75;4996507;28;20035;-77
2022/01/13 05:36:32;;;;;;;509.90;62.53;;;;;;;1.31;100.00;103795.44;5000938;28;20485;-76
2022/01/13 05:38:58;;;;;;;443.70;54.10;;;;;;;1.34;100.00;103801.75;4997776;28;20505;-76
2022/01/13 05:41:23;;;;;;;459.60;58.88;;;;;;;1.28;100.00;103794.53;5000942;28;20062;-75
2022/01/13 05:43:48;;;;;;;464.52;56.75;;;;;;;1.28;100.00;103789.13;4994192;28;20069;-75
2022/01/13 05:46:14;;;;;;;439.88;52.60;;;;;;;1.28;100.00;103796.34;4969534;28;20061;-76
2022/01/13 05:48:39;;;;;;;445.85;56.35;;;;;;;1.26;100.00;103787.31;4994273;28;20065;-77
2022/01/13 05:51:05;;;;;;;438.63;55.10;;;;;;;1.26;100.00;103785.53;4985551;28;20100;-77
2022/01/13 05:53:30;;;;;;;461.33;55.85;;;;;;;1.31;100.00;103785.53;4978070;28;20030;-77
2022/01/13 05:55:56;;;;;;;459.88;55.20;;;;;;;1.27;100.00;103790.03;5003371;28;20069;-76
2022/01/13 05:58:21;;;;;;;427.77;54.35;;;;;;;1.32;100.00;103799.97;4983703;28;20110;-76
2022/01/13 06:00:46;;;;;;;436.67;55.30;;;;;;;1.34;100.00;103796.34;4986473;28;20038;-76
2022/01/13 06:03:12;;;;;;;452.35;56.42;;;;;;;1.36;100.00;103793.69;4974004;28;20032;-75
2022/01/13 06:05:37;;;;;;;491.40;57.00;;;;;;;1.36;100.00;103802.69;4991463;28;20043;-76
2022/01/13 06:08:04;;;;;;;445.00;50.58;;;;;;;1.31;100.00;103800.84;4988640;28;20106;-76
2022/01/13 06:10:30;;;;;;;436.08;50.53;;;;;;;1.22;100.00;103785.50;4987322;28;20042;-76
2022/01/13 06:12:55;;;;;;;428.67;49.20;;;;;;;1.19;100.00;103791.75;4988956;28;20118;-75
2022/01/13 06:15:25;;;;;;;453.80;50.75;;;;;;;1.20;100.00;103796.28;4988348;28;20118;-76
2022/01/13 06:17:53;;;;;;;444.65;53.35;;;;;;;1.22;100.00;103788.19;4991303;28;20085;-76
2022/01/13 06:20:19;;;;;;;421.75;52.65;;;;;;;1.17;100.00;103788.16;4975977;28;20129;-76
2022/01/13 06:22:46;;;;;;;475.83;50.72;;;;;;;1.21;100.00;103792.66;4990804;28;20037;-76
2022/01/13 06:25:14;;;;;;;548.53;55.42;;;;;;;1.23;100.00;103796.31;4989291;28;20038;-76
2022/01/13 06:27:40;;;;;;;490.75;57.58;;;;;;;1.28;100.00;103790.94;5008152;28;20031;-78
2022/01/13 06:30:09;;;;;;;496.40;56.58;;;;;;;1.31;100.00;103787.34;4976186;28;20141;-76
2022/01/13 06:32:35;;;;;;;516.75;56.13;;;;;;;1.33;100.00;103788.25;4994738;28;20041;-77
2022/01/13 06:35:01;;;;;;;497.85;53.65;;;;;;;1.33;100.00;103791.88;4993203;28;20105;-78
2022/01/13 06:37:26;;;;;;;562.00;51.60;;;;;;;1.19;100.00;103774.66;4995794;28;20109;-77
2022/01/13 06:39:52;;;;;;;503.08;47.15;;;;;;;1.10;100.00;103783.59;4978820;28;20088;-77
2022/01/13 06:42:17;;;;;;;445.58;46.78;;;;;;;1.06;100.00;103784.47;4978149;28;20569;-77
2022/01/13 06:44:43;;;;;;;458.88;47.35;;;;;;;1.10;100.00;103786.31;4992588;28;20030;-77
2022/01/13 06:47:09;;;;;;;488.23;45.08;;;;;;;1.13;100.00;103780.91;4988172;28;20471;-77
2022/01/13 06:49:35;;;;;;;514.08;47.83;;;;;;;1.11;100.00;103790.78;4994625;28;20049;-78
2022/01/13 06:52:01;;;;;;;540.75;49.30;;;;;;;1.02;100.00;103782.66;5009687;28;20089;-77
2022/01/13 06:54:27;;;;;;;628.38;53.53;;;;;;;0.97;100.00;103784.38;4994936;28;20506;-77
2022/01/13 06:56:52;;;;;;;590.00;50.22;;;;;;;0.96;100.00;103783.47;4978335;28;20035;-77
2022/01/13 06:59:19;;;;;;;550.22;50.42;;;;;;;0.97;100.00;103778.97;4977037;28;20069;-77
2022/01/13 07:01:47;;;;;;;566.38;50.20;;;;;;;0.99;100.00;103772.72;4977693;28;20022;-77
2022/01/13 07:04:13;;;;;;;590.10;52.50;;;;;;;1.03;100.00;103782.66;4993706;28;20045;-78
2022/01/13 07:06:40;;;;;;;508.63;49.83;;;;;;;1.15;100.00;103786.31;5009520;28;20050;-77
2022/01/13 07:09:09;;;;;;;610.63;51.10;;;;;;;1.12;100.00;103795.31;4997293;28;20035;-78
2022/01/13 07:11:35;;;;;;;529.38;52.58;;;;;;;1.11;100.00;103793.50;4993335;28;20038;-78
2022/01/13 07:14:01;;;;;;;576.78;50.38;;;;;;;1.14;100.00;103790.81;4993983;28;20047;-78
2022/01/13 07:16:27;;;;;;;523.22;51.55;;;;;;;1.15;100.00;103798.03;5006833;28;20092;-77
2022/01/13 07:18:53;;;;;;;533.67;53.30;;;;;;;1.14;100.00;103782.72;4970224;28;20034;-77
2022/01/13 07:21:20;;;;;;;590.25;52.50;;;;;;;1.18;100.00;103799.84;5006547;28;20059;-76
2022/01/13 07:23:46;;;;;;;553.05;51.88;;;;;;;1.20;100.00;103798.97;5000268;28;20034;-77
2022/01/13 07:26:12;;;;;;;551.30;51.05;;;;;;;1.23;100.00;103790.91;4982042;28;20467;-78
2022/01/13 07:28:37;;;;;;;534.33;51.15;;;;;;;1.31;100.00;103804.44;4978251;28;20449;-79
2022/01/13 07:31:03;;;;;;;604.72;52.08;;;;;;;1.26;100.00;103801.72;4971813;28;20053;-78
2022/01/13 07:33:28;;;;;;;539.35;49.83;;;;;;;1.12;100.00;103805.22;4964502;28;20031;-78
2022/01/13 07:35:54;;;;;;;581.17;51.08;;;;;;;1.12;100.00;103813.31;4974601;28;20050;-79
2022/01/13 07:38:20;;;;;;;481.70;47.45;;;;;;;1.17;100.00;103809.72;4987963;28;20046;-78
2022/01/13 07:40:46;;;;;;;533.33;44.72;;;;;;;1.20;100.00;103812.47;4975763;28;20537;-78
2022/01/13 07:43:12;;;;;;;623.30;49.05;;;;;;;1.15;100.00;103805.19;4979365;28;20053;-77
2022/01/13 07:45:38;;;;;;;620.15;45.20;;;;;;;1.08;100.00;103805.19;4988629;28;20057;-77
2022/01/13 07:48:04;;;;;;;624.05;47.05;;;;;;;1.04;100.00;103800.63;4989975;28;20030;-77
2022/01/13 07:50:29;;;;;;;493.02;46.35;;;;;;;1.20;100.00;103792.69;4993466;28;20502;-77
2022/01/13 07:52:55;;;;;;;552.50;40.47;;;;;;;1.08;100.00;103796.16;4978670;28;20023;-76
2022/01/13 07:55:20;;;;;;;604.20;48.38;;;;;;;1.07;100.00;103797.06;4987926;28;20038;-77
2022/01/13 07:57:46;;;;;;;643.47;49.13;;;;;;;1.06;100.00;103804.25;4977378;28;20537;-77
2022/01/13 08:00:13;;;;;;;650.85;48.28;;;;;;;1.08;100.00;103805.19;4977219;28;20045;-77
2022/01/13 08:02:40;;;;;;;718.70;54.85;;;;;;;1.03;100.00;103801.53;4993310;28;20045;-77
2022/01/13 08:05:07;;;;;;;624.85;45.72;;;;;;;1.07;100.00;103811.44;4982961;28;21074;-77
2022/01/13 08:07:33;;;;;;;632.72;51.45;;;;;;;1.07;100.00;103807.84;4974274;28;20148;-77
2022/01/13 08:09:59;;;;;;;664.60;49.22;;;;;;;1.05;100.00;103809.63;4981586;28;20026;-77
2022/01/13 08:12:25;;;;;;;582.15;41.92;;;;;;;1.08;100.00;103809.66;4997223;28;20384;-77
2022/01/13 08:14:51;;;;;;;664.80;47.38;;;;;;;1.09;100.00;103816.88;4981599;28;20035;-77
2022/01/13 08:19:45;;;;;;;642.28;47.92;;;;;;;1.09;100.00;103815.06;4982552;28;20041;-77
2022/01/13 08:20:06;;;;;;;591.17;46.15;;;;;;;1.15;100.00;103835.81;4991612;28;20034;-77
2022/01/13 08:22:32;;;;;;;586.03;46.25;;;;;;;1.06;100.00;103828.53;4991977;28;20126;-77
2022/01/13 08:24:57;;;;;;;594.58;45.95;;;;;;;1.02;100.00;103826.69;4958244;28;20562;-77
2022/01/13 08:27:23;;;;;;;598.50;48.58;;;;;;;0.99;100.00;103828.47;4987287;28;20058;-77
2022/01/13 08:29:49;;;;;;;669.80;48.58;;;;;;;1.01;100.00;103824.88;4993145;28;20038;-77
2022/01/13 08:32:14;;;;;;;591.53;47.33;;;;;;;1.13;100.00;103834.88;4983254;28;20398;-77
2022/01/13 08:34:40;;;;;;;636.63;46.00;;;;;;;1.14;100.00;103831.28;4973207;28;20034;-77
2022/01/13 08:37:05;;;;;;;595.45;46.63;;;;;;;1.06;100.00;103833.91;4969904;28;20417;-77
2022/01/13 08:39:37;;;;;;;670.30;49.40;;;;;;;1.14;100.00;103830.41;4985121;28;20042;-77
2022/01/13 08:42:03;;;;;;;625.97;44.47;;;;;;;1.14;100.00;103834.00;4991421;28;20050;-77
2022/01/13 08:44:28;;;;;;;552.83;47.63;;;;;;;1.17;100.00;103831.31;4995344;28;20068;-77
2022/01/13 08:46:54;;;;;;;678.08;52.85;;;;;;;1.19;100.00;103840.31;4999859;28;20597;-77
2022/01/13 08:49:19;;;;;;;648.55;45.70;;;;;;;1.10;100.00;103835.75;4989143;28;20039;-77
2022/01/13 08:51:45;;;;;;;650.28;45.13;;;;;;;1.17;100.00;103844.81;4988471;28;20057;-77
2022/01/13 08:54:10;;;;;;;594.05;42.85;;;;;;;1.15;100.00;103854.69;5007445;28;20037;-77
2022/01/13 08:56:37;;;;;;;630.17;47.45;;;;;;;1.13;100.00;103856.47;4987596;28;20046;-77
2022/01/13 08:59:02;;;;;;;521.03;40.72;;;;;;;1.18;100.00;103860.13;4972133;28;20389;-77
2022/01/13 09:01:30;;;;;;;596.42;47.28;;;;;;;1.25;100.00;103863.78;4988438;28;20026;-77
2022/01/13 09:03:55;;;;;;;577.53;44.60;;;;;;;1.26;100.00;103858.41;4987049;28;20109;-77
2022/01/13 09:06:21;;;;;;;561.55;44.92;;;;;;;1.38;100.00;103870.19;4981885;28;20138;-78
2022/01/13 09:08:46;;;;;;;607.30;43.53;;;;;;;1.27;100.00;103864.69;4979569;28;20046;-78
2022/01/13 09:11:14;;;;;;;601.72;44.65;;;;;;;1.18;100.00;103856.50;4974359;28;20118;-79
2022/01/13 09:13:40;;;;;;;522.78;41.10;;;;;;;1.22;100.00;103863.75;4985009;28;20070;-77
2022/01/13 09:16:14;;;;;;;505.35;40.92;;;;;;;1.23;100.00;103862.84;4979979;28;20085;-77
2022/01/13 09:21:22;;;;;;;491.00;41.22;;;;;;;1.14;100.00;103860.97;4987802;28;20050;-78
2022/01/13 09:23:48;;;;;;;492.45;37.45;;;;;;;1.17;100.00;103863.72;4975154;28;20395;-78
2022/01/13 09:26:14;;;;;;;558.45;39.78;;;;;;;1.25;100.00;103856.59;4980347;28;20070;-78
2022/01/13 09:28:39;;;;;;;513.33;40.78;;;;;;;1.17;100.00;103854.72;4980744;28;20125;-77
2022/01/13 09:31:05;;;;;;;565.58;40.50;;;;;;;1.21;100.00;103870.91;4982783;28;20117;-78
2022/01/13 09:33:32;;;;;;;577.17;39.33;;;;;;;1.14;100.00;103857.38;4990384;28;20034;-78
2022/01/13 09:35:58;;;;;;;569.28;42.50;;;;;;;1.23;100.00;103871.88;4991733;28;20030;-77
2022/01/13 09:38:23;;;;;;;578.97;35.60;;;;;;;1.21;100.00;103867.31;4972541;28;20484;-77
2022/01/13 09:40:52;;;;;;;470.42;34.50;;;;;;;1.23;100.00;103877.25;4974054;28;20031;-77
2022/01/13 09:43:22;;;;;;;532.90;42.00;;;;;;;1.18;100.00;103862.81;4973841;28;20090;-77
2022/01/13 09:45:48;;;;;;;502.08;36.42;;;;;;;1.19;100.00;103861.91;4975706;28;20112;-77
2022/01/13 09:48:13;;;;;;;494.77;37.83;;;;;;;1.23;100.00;103879.03;4992166;28;20086;-77
2022/01/13 09:50:40;;;;;;;510.20;38.45;;;;;;;1.32;100.00;103878.22;4989180;28;20580;-77
2022/01/13 09:53:07;;;;;;;507.65;37.20;;;;;;;1.34;100.00;103874.63;4993123;28;20052;-77
2022/01/13 09:55:33;;;;;;;546.75;41.25;;;;;;;1.40;100.00;103873.81;4975085;28;20031;-77
2022/01/13 09:58:03;;;;;;;479.80;36.90;;;;;;;1.44;100.00;103875.63;5016761;28;20037;-77
2022/01/13 10:00:30;;;;;;;397.02;36.08;;;;;;;1.47;100.00;103870.25;4992207;28;20077;-77
2022/01/13 10:02:55;;;;;;;514.47;40.75;;;;;;;1.36;100.00;103866.56;4977950;28;20471;-77
2022/01/13 10:05:22;;;;;;;443.48;36.00;;;;;;;1.37;100.00;103854.88;4987692;28;20027;-78
2022/01/13 10:07:50;;;;;;;455.92;34.30;;;;;;;1.42;100.00;103858.50;4999904;28;20163;-77
2022/01/13 10:10:17;;;;;;;381.38;29.25;;;;;;;1.42;100.00;103855.81;4983933;28;20117;-77
2022/01/13 10:12:46;;;;;;;461.08;35.97;;;;;;;1.42;100.00;103845.91;4975287;28;20066;-77
2022/01/13 10:17:59;;;;;;;468.38;33.88;;;;;;;1.63;100.00;103849.69;4996598;28;20026;-78
2022/01/13 10:20:24;;;;;;;465.95;34.42;;;;;;;1.60;100.00;103866.75;4996488;28;20045;-78
2022/01/13 10:22:50;;;;;;;410.25;35.67;;;;;;;1.61;100.00;103852.34;4998412;28;20445;-78
2022/01/13 10:25:30;;;;;;;429.75;36.25;;;;;;;1.54;100.00;103863.09;4998701;28;20034;-78
2022/01/13 10:28:09;;;;;;;414.67;35.78;;;;;;;1.61;100.00;103865.88;5015188;28;20074;-78
2022/01/13 10:30:36;;;;;;;449.83;36.13;;;;;;;1.73;100.00;103856.03;4979232;28;20049;-78
2022/01/13 10:33:22;;;;;;;362.38;30.52;;;;;;;1.71;100.00;103857.84;5005106;28;20508;-78
2022/01/13 10:35:51;;;;;;;379.63;33.20;;;;;;;1.70;100.00;103858.72;4984941;28;20030;-78
2022/01/13 10:38:18;;;;;;;356.83;32.63;;;;;;;1.69;100.00;103848.78;4994716;28;20053;-78
2022/01/13 10:40:47;;;;;;;394.15;33.85;;;;;;;1.80;100.00;103856.09;4984672;28;20362;-78
2022/01/13 10:43:15;;;;;;;372.83;31.70;;;;;;;1.82;100.00;103856.06;4998221;28;20033;-78
2022/01/13 10:45:49;;;;;;;438.98;34.15;;;;;;;1.81;100.00;103846.19;4995907;28;20090;-78
2022/01/13 10:48:21;;;;;;;321.35;31.88;;;;;;;1.76;100.00;103845.25;4993187;28;20038;-78
2022/01/13 10:50:52;;;;;;;344.20;31.67;;;;;;;1.77;100.00;103838.94;4977893;28;20246;-79
2022/01/13 10:53:20;;;;;;;308.38;31.67;;;;;;;1.79;100.00;103845.28;4986270;28;20039;-78
2022/01/13 10:55:52;;;;;;;383.13;34.47;;;;;;;1.75;100.00;103843.44;4994705;28;20778;-78
2022/01/13 10:58:22;;;;;;;322.48;32.58;;;;;;;1.68;100.00;103844.31;4998070;28;20145;-78
2022/01/13 11:00:50;;;;;;;362.63;32.65;;;;;;;1.72;100.00;103840.72;4980084;28;20031;-78
2022/01/13 11:03:19;;;;;;;353.92;34.70;;;;;;;1.71;100.00;103847.03;4986533;28;20037;-78
2022/01/13 11:05:57;;;;;;;324.17;34.92;;;;;;;1.76;100.00;103832.66;4989009;28;20062;-79
2022/01/13 11:08:48;;;;;;;338.33;33.50;;;;;;;1.82;100.00;103832.69;5013880;28;20033;-78
2022/01/13 11:11:20;;;;;;;309.13;32.72;;;;;;;1.80;100.00;103829.09;4998408;28;20038;-78
2022/01/13 11:13:54;;;;;;;311.42;33.38;;;;;;;1.83;100.00;103825.47;4995036;28;20027;-78
2022/01/13 11:16:21;;;;;;;293.83;29.80;;;;;;;1.84;100.00;103825.50;4991648;28;20065;-78
2022/01/13 11:18:46;;;;;;;283.63;33.45;;;;;;;1.80;100.00;103812.88;4994209;28;20034;-80
2022/01/13 11:21:12;;;;;;;306.80;32.00;;;;;;;1.92;100.00;103816.50;4999994;28;20031;-80
2022/01/13 11:23:41;;;;;;;386.52;37.17;;;;;;;1.89;100.00;103824.63;4985459;28;20031;-77
2022/01/13 11:26:08;;;;;;;427.35;37.15;;;;;;;1.94;100.00;103810.22;4975335;28;20038;-77
2022/01/13 11:28:37;;;;;;;367.33;37.15;;;;;;;1.95;100.00;103812.06;5002363;28;20038;-77
2022/01/13 11:31:02;;;;;;;312.92;34.70;;;;;;;1.95;100.00;103820.16;4979204;28;20051;-77
2022/01/13 11:33:28;;;;;;;373.85;36.58;;;;;;;1.89;100.00;103820.13;5005719;28;20142;-77
2022/01/13 11:35:56;;;;;;;374.00;34.25;;;;;;;1.90;100.00;103812.91;4977932;28;20041;-78